sensor_id;sensor_type;location;lat;lon;timestamp;P1;durP1;ratioP1;P2;durP2;ratioP2
7801;SDS011;3945;48.952;9.506;2023-03-19T00:00:36;1.37;;;1.07;;
7801;SDS011;3945;48.952;9.506;2023-03-19T00:03:02;1.43;;;1.03;;
7801;SDS011;3945;48.952;9.506;2023-03-19T00:05:28;1.33;;;1.23;;
7801;SDS011;3945;48.952;9.506;2023-03-19T00:07:55;5.97;;;1.33;;
7801;SDS011;3945;48.952;9.506;2023-03-19T00:10:21;2.27;;;1.00;;
7801;SDS011;3945;48.952;9.506;2023-03-19T00:12:48;3.13;;;1.37;;
7801;SDS011;3945;48.952;9.506;2023-03-19T00:15:16;2.30;;;1.27;;
7801;SDS011;3945;48.952;9.506;2023-03-19T00:17:43;1.80;;;1.37;;
7801;SDS011;3945;48.952;9.506;2023-03-19T00:20:10;1.60;;;1.10;;
7801;SDS011;3945;48.952;9.506;2023-03-19T00:22:38;4.70;;;1.20;;
7801;SDS011;3945;48.952;9.506;2023-03-19T00:25:05;1.77;;;1.20;;
7801;SDS011;3945;48.952;9.506;2023-03-19T00:27:33;1.27;;;1.07;;
7801;SDS011;3945;48.952;9.506;2023-03-19T00:32:28;1.50;;;1.40;;
7801;SDS011;3945;48.952;9.506;2023-03-19T00:34:54;2.43;;;1.23;;
7801;SDS011;3945;48.952;9.506;2023-03-19T00:37:21;1.17;;;1.07;;
7801;SDS011;3945;48.952;9.506;2023-03-19T00:39:47;2.07;;;1.43;;
7801;SDS011;3945;48.952;9.506;2023-03-19T00:42:14;1.23;;;0.77;;
7801;SDS011;3945;48.952;9.506;2023-03-19T00:44:40;1.20;;;0.80;;
7801;SDS011;3945;48.952;9.506;2023-03-19T00:47:07;1.13;;;1.03;;
7801;SDS011;3945;48.952;9.506;2023-03-19T00:49:35;1.93;;;1.17;;
7801;SDS011;3945;48.952;9.506;2023-03-19T00:52:01;1.47;;;0.90;;
7801;SDS011;3945;48.952;9.506;2023-03-19T00:54:28;1.80;;;1.00;;
7801;SDS011;3945;48.952;9.506;2023-03-19T00:56:56;1.00;;;0.90;;
7801;SDS011;3945;48.952;9.506;2023-03-19T00:59:23;0.87;;;0.87;;
7801;SDS011;3945;48.952;9.506;2023-03-19T01:01:50;3.60;;;1.03;;
7801;SDS011;3945;48.952;9.506;2023-03-19T01:04:16;2.30;;;1.80;;
7801;SDS011;3945;48.952;9.506;2023-03-19T01:06:44;4.00;;;1.37;;
7801;SDS011;3945;48.952;9.506;2023-03-19T01:09:11;3.03;;;1.10;;
7801;SDS011;3945;48.952;9.506;2023-03-19T01:11:37;0.70;;;0.70;;
7801;SDS011;3945;48.952;9.506;2023-03-19T01:14:04;5.37;;;1.20;;
7801;SDS011;3945;48.952;9.506;2023-03-19T01:16:30;5.83;;;1.47;;
7801;SDS011;3945;48.952;9.506;2023-03-19T01:18:58;5.00;;;1.30;;
7801;SDS011;3945;48.952;9.506;2023-03-19T01:21:24;1.30;;;1.20;;
7801;SDS011;3945;48.952;9.506;2023-03-19T01:23:53;2.20;;;0.90;;
7801;SDS011;3945;48.952;9.506;2023-03-19T01:26:19;1.07;;;0.90;;
7801;SDS011;3945;48.952;9.506;2023-03-19T01:28:46;8.10;;;1.60;;
7801;SDS011;3945;48.952;9.506;2023-03-19T01:31:12;4.10;;;1.70;;
7801;SDS011;3945;48.952;9.506;2023-03-19T01:33:39;3.57;;;1.00;;
7801;SDS011;3945;48.952;9.506;2023-03-19T01:36:07;2.20;;;1.40;;
7801;SDS011;3945;48.952;9.506;2023-03-19T01:38:34;1.63;;;0.93;;
7801;SDS011;3945;48.952;9.506;2023-03-19T01:41:02;1.10;;;0.97;;
7801;SDS011;3945;48.952;9.506;2023-03-19T01:43:29;2.70;;;1.50;;
7801;SDS011;3945;48.952;9.506;2023-03-19T01:45:57;1.30;;;1.20;;
7801;SDS011;3945;48.952;9.506;2023-03-19T01:48:28;2.30;;;1.40;;
7801;SDS011;3945;48.952;9.506;2023-03-19T01:51:01;0.87;;;0.87;;
7801;SDS011;3945;48.952;9.506;2023-03-19T01:53:31;0.90;;;0.90;;
7801;SDS011;3945;48.952;9.506;2023-03-19T01:56:01;1.20;;;1.10;;
7801;SDS011;3945;48.952;9.506;2023-03-19T01:58:32;1.30;;;1.20;;
7801;SDS011;3945;48.952;9.506;2023-03-19T02:00:58;0.90;;;0.90;;
7801;SDS011;3945;48.952;9.506;2023-03-19T02:03:25;1.27;;;1.20;;
7801;SDS011;3945;48.952;9.506;2023-03-19T02:05:52;1.40;;;1.30;;
7801;SDS011;3945;48.952;9.506;2023-03-19T02:08:20;1.43;;;1.23;;
7801;SDS011;3945;48.952;9.506;2023-03-19T02:10:48;2.47;;;1.47;;
7801;SDS011;3945;48.952;9.506;2023-03-19T02:13:17;2.87;;;2.10;;
7801;SDS011;3945;48.952;9.506;2023-03-19T02:15:44;1.83;;;1.60;;
7801;SDS011;3945;48.952;9.506;2023-03-19T02:18:11;1.13;;;1.03;;
7801;SDS011;3945;48.952;9.506;2023-03-19T02:20:40;3.87;;;1.90;;
7801;SDS011;3945;48.952;9.506;2023-03-19T02:23:14;1.33;;;1.23;;
7801;SDS011;3945;48.952;9.506;2023-03-19T02:28:36;3.33;;;1.50;;
7801;SDS011;3945;48.952;9.506;2023-03-19T02:31:05;3.03;;;2.00;;
7801;SDS011;3945;48.952;9.506;2023-03-19T02:33:31;3.17;;;1.70;;
7801;SDS011;3945;48.952;9.506;2023-03-19T02:35:58;1.10;;;1.00;;
7801;SDS011;3945;48.952;9.506;2023-03-19T02:38:27;7.90;;;1.57;;
7801;SDS011;3945;48.952;9.506;2023-03-19T02:40:58;1.87;;;1.50;;
7801;SDS011;3945;48.952;9.506;2023-03-19T02:43:30;3.47;;;2.03;;
7801;SDS011;3945;48.952;9.506;2023-03-19T02:45:57;4.10;;;1.97;;
7801;SDS011;3945;48.952;9.506;2023-03-19T02:48:24;2.97;;;1.67;;
7801;SDS011;3945;48.952;9.506;2023-03-19T02:50:52;1.77;;;1.17;;
7801;SDS011;3945;48.952;9.506;2023-03-19T02:53:18;2.00;;;1.30;;
7801;SDS011;3945;48.952;9.506;2023-03-19T02:55:45;1.53;;;1.43;;
7801;SDS011;3945;48.952;9.506;2023-03-19T02:58:11;2.23;;;1.53;;
7801;SDS011;3945;48.952;9.506;2023-03-19T03:00:39;1.67;;;1.57;;
7801;SDS011;3945;48.952;9.506;2023-03-19T03:03:07;1.97;;;1.60;;
7801;SDS011;3945;48.952;9.506;2023-03-19T03:05:33;1.30;;;1.13;;
7801;SDS011;3945;48.952;9.506;2023-03-19T03:08:01;1.50;;;1.40;;
7801;SDS011;3945;48.952;9.506;2023-03-19T03:10:28;2.93;;;1.80;;
7801;SDS011;3945;48.952;9.506;2023-03-19T03:12:55;1.00;;;0.90;;
7801;SDS011;3945;48.952;9.506;2023-03-19T03:15:22;1.83;;;1.33;;
7801;SDS011;3945;48.952;9.506;2023-03-19T03:17:49;1.60;;;1.27;;
7801;SDS011;3945;48.952;9.506;2023-03-19T03:20:16;2.47;;;1.60;;
7801;SDS011;3945;48.952;9.506;2023-03-19T03:22:43;1.23;;;1.00;;
7801;SDS011;3945;48.952;9.506;2023-03-19T03:25:11;1.70;;;1.50;;
7801;SDS011;3945;48.952;9.506;2023-03-19T03:27:38;2.93;;;1.23;;
7801;SDS011;3945;48.952;9.506;2023-03-19T03:30:05;3.83;;;1.40;;
7801;SDS011;3945;48.952;9.506;2023-03-19T03:32:33;1.27;;;1.20;;
7801;SDS011;3945;48.952;9.506;2023-03-19T03:35:01;2.30;;;1.40;;
7801;SDS011;3945;48.952;9.506;2023-03-19T03:37:28;2.97;;;1.53;;
7801;SDS011;3945;48.952;9.506;2023-03-19T03:39:54;1.50;;;1.40;;
7801;SDS011;3945;48.952;9.506;2023-03-19T03:42:21;1.33;;;1.23;;
7801;SDS011;3945;48.952;9.506;2023-03-19T03:44:47;1.23;;;1.13;;
7801;SDS011;3945;48.952;9.506;2023-03-19T03:47:14;2.63;;;1.30;;
7801;SDS011;3945;48.952;9.506;2023-03-19T03:49:42;1.53;;;1.33;;
7801;SDS011;3945;48.952;9.506;2023-03-19T03:52:11;1.77;;;1.53;;
7801;SDS011;3945;48.952;9.506;2023-03-19T03:54:37;2.17;;;1.10;;
7801;SDS011;3945;48.952;9.506;2023-03-19T03:57:04;1.47;;;1.37;;
7801;SDS011;3945;48.952;9.506;2023-03-19T03:59:32;2.50;;;1.67;;
7801;SDS011;3945;48.952;9.506;2023-03-19T04:01:58;2.13;;;1.57;;
7801;SDS011;3945;48.952;9.506;2023-03-19T04:04:25;3.63;;;1.43;;
7801;SDS011;3945;48.952;9.506;2023-03-19T04:06:51;2.43;;;1.20;;
7801;SDS011;3945;48.952;9.506;2023-03-19T04:09:19;1.47;;;1.10;;
7801;SDS011;3945;48.952;9.506;2023-03-19T04:11:45;2.20;;;1.33;;
7801;SDS011;3945;48.952;9.506;2023-03-19T04:14:13;1.37;;;1.20;;
7801;SDS011;3945;48.952;9.506;2023-03-19T04:16:39;4.43;;;1.40;;
7801;SDS011;3945;48.952;9.506;2023-03-19T04:19:08;1.57;;;1.03;;
7801;SDS011;3945;48.952;9.506;2023-03-19T04:21:34;1.27;;;1.17;;
7801;SDS011;3945;48.952;9.506;2023-03-19T04:24:00;17.47;;;1.57;;
7801;SDS011;3945;48.952;9.506;2023-03-19T04:26:28;1.07;;;1.00;;
7801;SDS011;3945;48.952;9.506;2023-03-19T04:28:56;1.27;;;1.20;;
7801;SDS011;3945;48.952;9.506;2023-03-19T04:31:23;0.70;;;0.70;;
7801;SDS011;3945;48.952;9.506;2023-03-19T04:33:49;1.83;;;1.63;;
7801;SDS011;3945;48.952;9.506;2023-03-19T04:36:16;2.73;;;1.30;;
7801;SDS011;3945;48.952;9.506;2023-03-19T04:38:42;11.93;;;0.97;;
7801;SDS011;3945;48.952;9.506;2023-03-19T04:41:09;1.47;;;1.10;;
7801;SDS011;3945;48.952;9.506;2023-03-19T04:43:37;0.87;;;0.80;;
7801;SDS011;3945;48.952;9.506;2023-03-19T04:46:03;1.43;;;1.33;;
7801;SDS011;3945;48.952;9.506;2023-03-19T04:48:30;1.20;;;0.90;;
7801;SDS011;3945;48.952;9.506;2023-03-19T04:50:57;1.20;;;1.10;;
7801;SDS011;3945;48.952;9.506;2023-03-19T04:53:24;0.90;;;0.90;;
7801;SDS011;3945;48.952;9.506;2023-03-19T04:55:50;2.80;;;1.20;;
7801;SDS011;3945;48.952;9.506;2023-03-19T04:58:17;3.27;;;1.63;;
7801;SDS011;3945;48.952;9.506;2023-03-19T05:00:45;1.37;;;1.27;;
7801;SDS011;3945;48.952;9.506;2023-03-19T05:03:12;1.40;;;1.23;;
7801;SDS011;3945;48.952;9.506;2023-03-19T05:05:38;1.93;;;1.30;;
7801;SDS011;3945;48.952;9.506;2023-03-19T05:08:05;1.80;;;1.00;;
7801;SDS011;3945;48.952;9.506;2023-03-19T05:10:32;1.30;;;1.20;;
7801;SDS011;3945;48.952;9.506;2023-03-19T05:12:59;1.47;;;1.37;;
7801;SDS011;3945;48.952;9.506;2023-03-19T05:15:25;1.50;;;1.40;;
7801;SDS011;3945;48.952;9.506;2023-03-19T05:17:53;5.50;;;1.00;;
7801;SDS011;3945;48.952;9.506;2023-03-19T05:20:20;3.93;;;1.60;;
7801;SDS011;3945;48.952;9.506;2023-03-19T05:22:48;2.43;;;1.63;;
7801;SDS011;3945;48.952;9.506;2023-03-19T05:25:14;2.30;;;1.57;;
7801;SDS011;3945;48.952;9.506;2023-03-19T05:27:41;3.00;;;1.37;;
7801;SDS011;3945;48.952;9.506;2023-03-19T05:30:08;4.50;;;1.60;;
7801;SDS011;3945;48.952;9.506;2023-03-19T05:32:35;1.20;;;1.10;;
7801;SDS011;3945;48.952;9.506;2023-03-19T05:35:03;2.07;;;1.43;;
7801;SDS011;3945;48.952;9.506;2023-03-19T05:37:31;2.60;;;1.30;;
7801;SDS011;3945;48.952;9.506;2023-03-19T05:39:57;1.33;;;1.17;;
7801;SDS011;3945;48.952;9.506;2023-03-19T05:42:24;1.60;;;1.50;;
7801;SDS011;3945;48.952;9.506;2023-03-19T05:44:50;2.63;;;1.73;;
7801;SDS011;3945;48.952;9.506;2023-03-19T05:47:17;1.80;;;1.40;;
7801;SDS011;3945;48.952;9.506;2023-03-19T05:49:43;1.63;;;1.23;;
7801;SDS011;3945;48.952;9.506;2023-03-19T05:52:11;1.40;;;1.27;;
7801;SDS011;3945;48.952;9.506;2023-03-19T05:54:38;1.67;;;1.57;;
7801;SDS011;3945;48.952;9.506;2023-03-19T05:57:05;1.27;;;1.17;;
7801;SDS011;3945;48.952;9.506;2023-03-19T05:59:32;1.40;;;1.30;;
7801;SDS011;3945;48.952;9.506;2023-03-19T06:01:59;0.70;;;0.70;;
7801;SDS011;3945;48.952;9.506;2023-03-19T06:04:25;1.93;;;1.00;;
7801;SDS011;3945;48.952;9.506;2023-03-19T06:06:52;0.87;;;0.87;;
7801;SDS011;3945;48.952;9.506;2023-03-19T06:09:20;0.80;;;0.80;;
7801;SDS011;3945;48.952;9.506;2023-03-19T06:11:46;1.23;;;1.10;;
7801;SDS011;3945;48.952;9.506;2023-03-19T06:14:13;0.90;;;0.80;;
7801;SDS011;3945;48.952;9.506;2023-03-19T06:16:40;1.13;;;0.80;;
7801;SDS011;3945;48.952;9.506;2023-03-19T06:19:06;0.70;;;0.70;;
7801;SDS011;3945;48.952;9.506;2023-03-19T06:21:33;1.20;;;0.97;;
7801;SDS011;3945;48.952;9.506;2023-03-19T06:24:00;0.90;;;0.90;;
7801;SDS011;3945;48.952;9.506;2023-03-19T06:26:27;1.43;;;0.70;;
7801;SDS011;3945;48.952;9.506;2023-03-19T06:28:54;0.50;;;0.50;;
7801;SDS011;3945;48.952;9.506;2023-03-19T06:31:22;0.60;;;0.60;;
7801;SDS011;3945;48.952;9.506;2023-03-19T06:33:48;0.60;;;0.60;;
7801;SDS011;3945;48.952;9.506;2023-03-19T06:36:15;0.93;;;0.73;;
7801;SDS011;3945;48.952;9.506;2023-03-19T06:38:42;3.50;;;0.80;;
7801;SDS011;3945;48.952;9.506;2023-03-19T06:41:09;1.03;;;0.77;;
7801;SDS011;3945;48.952;9.506;2023-03-19T06:43:37;0.70;;;0.70;;
7801;SDS011;3945;48.952;9.506;2023-03-19T06:46:06;0.70;;;0.70;;
7801;SDS011;3945;48.952;9.506;2023-03-19T06:48:34;0.80;;;0.80;;
7801;SDS011;3945;48.952;9.506;2023-03-19T06:51:01;0.63;;;0.53;;
7801;SDS011;3945;48.952;9.506;2023-03-19T06:53:28;1.30;;;0.80;;
7801;SDS011;3945;48.952;9.506;2023-03-19T06:55:55;1.60;;;0.80;;
7801;SDS011;3945;48.952;9.506;2023-03-19T06:58:21;0.50;;;0.50;;
7801;SDS011;3945;48.952;9.506;2023-03-19T07:00:49;0.77;;;0.77;;
7801;SDS011;3945;48.952;9.506;2023-03-19T07:03:16;0.70;;;0.70;;
7801;SDS011;3945;48.952;9.506;2023-03-19T07:05:42;1.33;;;0.80;;
7801;SDS011;3945;48.952;9.506;2023-03-19T07:08:09;1.00;;;0.73;;
7801;SDS011;3945;48.952;9.506;2023-03-19T07:10:36;2.70;;;1.10;;
7801;SDS011;3945;48.952;9.506;2023-03-19T07:13:03;0.50;;;0.50;;
7801;SDS011;3945;48.952;9.506;2023-03-19T07:15:29;0.80;;;0.80;;
7801;SDS011;3945;48.952;9.506;2023-03-19T07:17:57;1.87;;;0.80;;
7801;SDS011;3945;48.952;9.506;2023-03-19T07:20:24;1.23;;;0.77;;
7801;SDS011;3945;48.952;9.506;2023-03-19T07:22:51;0.50;;;0.50;;
7801;SDS011;3945;48.952;9.506;2023-03-19T07:25:17;0.93;;;0.87;;
7801;SDS011;3945;48.952;9.506;2023-03-19T07:27:44;1.20;;;1.10;;
7801;SDS011;3945;48.952;9.506;2023-03-19T07:30:12;3.90;;;0.70;;
7801;SDS011;3945;48.952;9.506;2023-03-19T07:32:39;1.27;;;0.83;;
7801;SDS011;3945;48.952;9.506;2023-03-19T07:35:08;0.90;;;0.80;;
7801;SDS011;3945;48.952;9.506;2023-03-19T07:37:35;1.03;;;0.70;;
7801;SDS011;3945;48.952;9.506;2023-03-19T07:40:02;1.60;;;0.70;;
7801;SDS011;3945;48.952;9.506;2023-03-19T07:42:29;1.33;;;0.80;;
7801;SDS011;3945;48.952;9.506;2023-03-19T07:44:55;1.47;;;1.00;;
7801;SDS011;3945;48.952;9.506;2023-03-19T07:47:22;2.97;;;1.93;;
7801;SDS011;3945;48.952;9.506;2023-03-19T07:49:48;1.50;;;1.40;;
7801;SDS011;3945;48.952;9.506;2023-03-19T07:52:16;2.00;;;1.13;;
7801;SDS011;3945;48.952;9.506;2023-03-19T07:54:43;2.97;;;1.13;;
7801;SDS011;3945;48.952;9.506;2023-03-19T07:57:10;1.70;;;0.70;;
7801;SDS011;3945;48.952;9.506;2023-03-19T07:59:37;0.67;;;0.53;;
7801;SDS011;3945;48.952;9.506;2023-03-19T08:02:03;0.70;;;0.70;;
7801;SDS011;3945;48.952;9.506;2023-03-19T08:04:30;0.53;;;0.53;;
7801;SDS011;3945;48.952;9.506;2023-03-19T08:06:56;0.60;;;0.60;;
7801;SDS011;3945;48.952;9.506;2023-03-19T08:09:24;0.50;;;0.50;;
7801;SDS011;3945;48.952;9.506;2023-03-19T08:11:51;0.40;;;0.40;;
7801;SDS011;3945;48.952;9.506;2023-03-19T08:14:17;1.60;;;0.80;;
7801;SDS011;3945;48.952;9.506;2023-03-19T08:16:46;3.40;;;0.73;;
7801;SDS011;3945;48.952;9.506;2023-03-19T08:19:13;0.57;;;0.57;;
7801;SDS011;3945;48.952;9.506;2023-03-19T08:21:39;0.60;;;0.60;;
7801;SDS011;3945;48.952;9.506;2023-03-19T08:24:06;0.53;;;0.53;;
7801;SDS011;3945;48.952;9.506;2023-03-19T08:26:34;1.60;;;0.63;;
7801;SDS011;3945;48.952;9.506;2023-03-19T08:29:01;0.87;;;0.63;;
7801;SDS011;3945;48.952;9.506;2023-03-19T08:31:28;0.93;;;0.60;;
7801;SDS011;3945;48.952;9.506;2023-03-19T08:33:55;0.70;;;0.53;;
7801;SDS011;3945;48.952;9.506;2023-03-19T08:36:24;0.60;;;0.40;;
7801;SDS011;3945;48.952;9.506;2023-03-19T08:38:51;0.50;;;0.50;;
7801;SDS011;3945;48.952;9.506;2023-03-19T08:41:18;0.70;;;0.47;;
7801;SDS011;3945;48.952;9.506;2023-03-19T08:43:47;1.53;;;0.70;;
7801;SDS011;3945;48.952;9.506;2023-03-19T08:46:14;0.70;;;0.60;;
7801;SDS011;3945;48.952;9.506;2023-03-19T08:48:41;1.27;;;0.60;;
7801;SDS011;3945;48.952;9.506;2023-03-19T08:51:07;0.40;;;0.40;;
7801;SDS011;3945;48.952;9.506;2023-03-19T08:53:34;0.37;;;0.30;;
7801;SDS011;3945;48.952;9.506;2023-03-19T08:56:02;0.67;;;0.63;;
7801;SDS011;3945;48.952;9.506;2023-03-19T08:58:30;1.37;;;0.60;;
7801;SDS011;3945;48.952;9.506;2023-03-19T09:01:01;0.70;;;0.40;;
7801;SDS011;3945;48.952;9.506;2023-03-19T09:03:28;0.23;;;0.23;;
7801;SDS011;3945;48.952;9.506;2023-03-19T09:05:56;0.30;;;0.30;;
7801;SDS011;3945;48.952;9.506;2023-03-19T09:08:23;2.90;;;0.70;;
7801;SDS011;3945;48.952;9.506;2023-03-19T09:10:50;0.67;;;0.53;;
7801;SDS011;3945;48.952;9.506;2023-03-19T09:13:17;4.00;;;0.60;;
7801;SDS011;3945;48.952;9.506;2023-03-19T09:15:43;0.50;;;0.50;;
7801;SDS011;3945;48.952;9.506;2023-03-19T09:18:11;0.37;;;0.37;;
7801;SDS011;3945;48.952;9.506;2023-03-19T09:20:37;0.77;;;0.33;;
7801;SDS011;3945;48.952;9.506;2023-03-19T09:23:04;0.80;;;0.60;;
7801;SDS011;3945;48.952;9.506;2023-03-19T09:25:31;1.60;;;0.70;;
7801;SDS011;3945;48.952;9.506;2023-03-19T09:27:57;0.97;;;0.60;;
7801;SDS011;3945;48.952;9.506;2023-03-19T09:30:23;5.63;;;1.20;;
7801;SDS011;3945;48.952;9.506;2023-03-19T09:32:50;4.17;;;1.10;;
7801;SDS011;3945;48.952;9.506;2023-03-19T09:35:18;0.40;;;0.40;;
7801;SDS011;3945;48.952;9.506;2023-03-19T09:45:18;1.43;;;0.80;;
7801;SDS011;3945;48.952;9.506;2023-03-19T09:47:46;1.13;;;0.73;;
7801;SDS011;3945;48.952;9.506;2023-03-19T09:50:17;0.30;;;0.30;;
7801;SDS011;3945;48.952;9.506;2023-03-19T09:52:48;0.83;;;0.40;;
7801;SDS011;3945;48.952;9.506;2023-03-19T09:55:29;1.73;;;0.50;;
7801;SDS011;3945;48.952;9.506;2023-03-19T09:58:01;0.70;;;0.67;;
7801;SDS011;3945;48.952;9.506;2023-03-19T10:00:34;0.30;;;0.30;;
7801;SDS011;3945;48.952;9.506;2023-03-19T10:03:03;0.30;;;0.30;;
7801;SDS011;3945;48.952;9.506;2023-03-19T10:05:43;0.83;;;0.43;;
7801;SDS011;3945;48.952;9.506;2023-03-19T10:08:24;2.63;;;0.67;;
7801;SDS011;3945;48.952;9.506;2023-03-19T10:11:00;1.67;;;0.40;;
7801;SDS011;3945;48.952;9.506;2023-03-19T10:13:47;0.77;;;0.50;;
7801;SDS011;3945;48.952;9.506;2023-03-19T10:16:22;0.98;;;0.77;;
7801;SDS011;3945;48.952;9.506;2023-03-19T10:18:51;2.15;;;0.98;;
7801;SDS011;3945;48.952;9.506;2023-03-19T10:21:23;0.90;;;0.50;;
7801;SDS011;3945;48.952;9.506;2023-03-19T10:23:53;0.30;;;0.28;;
7801;SDS011;3945;48.952;9.506;2023-03-19T10:26:25;0.47;;;0.43;;
7801;SDS011;3945;48.952;9.506;2023-03-19T10:28:57;0.40;;;0.40;;
7801;SDS011;3945;48.952;9.506;2023-03-19T10:31:33;2.05;;;1.45;;
7801;SDS011;3945;48.952;9.506;2023-03-19T10:34:10;0.73;;;0.63;;
7801;SDS011;3945;48.952;9.506;2023-03-19T10:36:47;0.40;;;0.40;;
7801;SDS011;3945;48.952;9.506;2023-03-19T10:39:14;0.63;;;0.55;;
7801;SDS011;3945;48.952;9.506;2023-03-19T10:41:47;0.75;;;0.50;;
7801;SDS011;3945;48.952;9.506;2023-03-19T10:44:20;0.52;;;0.50;;
7801;SDS011;3945;48.952;9.506;2023-03-19T10:46:56;2.80;;;0.40;;
7801;SDS011;3945;48.952;9.506;2023-03-19T10:49:23;0.30;;;0.30;;
7801;SDS011;3945;48.952;9.506;2023-03-19T10:51:51;2.50;;;0.57;;
7801;SDS011;3945;48.952;9.506;2023-03-19T10:54:22;1.25;;;0.50;;
7801;SDS011;3945;48.952;9.506;2023-03-19T10:56:50;0.20;;;0.20;;
7801;SDS011;3945;48.952;9.506;2023-03-19T10:59:21;0.43;;;0.32;;
7801;SDS011;3945;48.952;9.506;2023-03-19T11:01:54;0.73;;;0.32;;
7801;SDS011;3945;48.952;9.506;2023-03-19T11:04:24;1.17;;;0.60;;
7801;SDS011;3945;48.952;9.506;2023-03-19T11:06:54;2.47;;;0.60;;
7801;SDS011;3945;48.952;9.506;2023-03-19T11:09:28;1.55;;;0.52;;
7801;SDS011;3945;48.952;9.506;2023-03-19T11:12:04;0.50;;;0.50;;
7801;SDS011;3945;48.952;9.506;2023-03-19T11:14:33;0.95;;;0.40;;
7801;SDS011;3945;48.952;9.506;2023-03-19T11:17:03;1.27;;;0.52;;
7801;SDS011;3945;48.952;9.506;2023-03-19T11:19:32;1.90;;;0.30;;
7801;SDS011;3945;48.952;9.506;2023-03-19T11:22:12;0.82;;;0.45;;
7801;SDS011;3945;48.952;9.506;2023-03-19T11:24:43;1.40;;;0.57;;
7801;SDS011;3945;48.952;9.506;2023-03-19T11:27:15;0.98;;;0.30;;
7801;SDS011;3945;48.952;9.506;2023-03-19T11:29:42;1.17;;;0.65;;
7801;SDS011;3945;48.952;9.506;2023-03-19T11:32:14;0.85;;;0.50;;
7801;SDS011;3945;48.952;9.506;2023-03-19T11:34:51;1.05;;;0.28;;
7801;SDS011;3945;48.952;9.506;2023-03-19T11:37:24;0.30;;;0.30;;
7801;SDS011;3945;48.952;9.506;2023-03-19T11:40:01;7.78;;;0.40;;
7801;SDS011;3945;48.952;9.506;2023-03-19T11:42:41;4.45;;;0.70;;
7801;SDS011;3945;48.952;9.506;2023-03-19T11:45:20;0.50;;;0.50;;
7801;SDS011;3945;48.952;9.506;2023-03-19T11:47:59;0.50;;;0.50;;
7801;SDS011;3945;48.952;9.506;2023-03-19T11:50:46;1.27;;;0.43;;
7801;SDS011;3945;48.952;9.506;2023-03-19T11:53:22;0.40;;;0.40;;
7801;SDS011;3945;48.952;9.506;2023-03-19T11:55:55;1.15;;;0.40;;
7801;SDS011;3945;48.952;9.506;2023-03-19T11:58:39;0.30;;;0.30;;
7801;SDS011;3945;48.952;9.506;2023-03-19T12:01:21;0.75;;;0.38;;
7801;SDS011;3945;48.952;9.506;2023-03-19T12:04:05;5.25;;;0.80;;
7801;SDS011;3945;48.952;9.506;2023-03-19T12:06:59;3.38;;;0.38;;
7801;SDS011;3945;48.952;9.506;2023-03-19T12:09:35;1.40;;;0.45;;
7801;SDS011;3945;48.952;9.506;2023-03-19T12:12:13;0.57;;;0.55;;
7801;SDS011;3945;48.952;9.506;2023-03-19T12:14:52;0.30;;;0.30;;
7801;SDS011;3945;48.952;9.506;2023-03-19T12:17:33;1.00;;;0.55;;
7801;SDS011;3945;48.952;9.506;2023-03-19T12:20:17;0.63;;;0.43;;
7801;SDS011;3945;48.952;9.506;2023-03-19T12:22:53;0.40;;;0.40;;
7801;SDS011;3945;48.952;9.506;2023-03-19T12:25:29;0.30;;;0.30;;
7801;SDS011;3945;48.952;9.506;2023-03-19T12:28:06;0.20;;;0.20;;
7801;SDS011;3945;48.952;9.506;2023-03-19T12:30:43;1.38;;;0.40;;
7801;SDS011;3945;48.952;9.506;2023-03-19T12:33:21;0.82;;;0.30;;
7801;SDS011;3945;48.952;9.506;2023-03-19T12:35:58;1.33;;;0.63;;
7801;SDS011;3945;48.952;9.506;2023-03-19T12:38:30;1.50;;;0.95;;
7801;SDS011;3945;48.952;9.506;2023-03-19T12:41:04;1.65;;;0.60;;
7801;SDS011;3945;48.952;9.506;2023-03-19T12:43:35;1.05;;;0.50;;
7801;SDS011;3945;48.952;9.506;2023-03-19T12:46:08;1.45;;;0.40;;
7801;SDS011;3945;48.952;9.506;2023-03-19T12:48:39;1.05;;;0.47;;
7801;SDS011;3945;48.952;9.506;2023-03-19T12:51:11;2.05;;;0.60;;
7801;SDS011;3945;48.952;9.506;2023-03-19T12:53:42;1.27;;;0.50;;
7801;SDS011;3945;48.952;9.506;2023-03-19T12:56:18;1.98;;;0.55;;
7801;SDS011;3945;48.952;9.506;2023-03-19T12:58:52;0.80;;;0.52;;
7801;SDS011;3945;48.952;9.506;2023-03-19T13:01:25;2.97;;;0.82;;
7801;SDS011;3945;48.952;9.506;2023-03-19T13:03:56;0.85;;;0.57;;
7801;SDS011;3945;48.952;9.506;2023-03-19T13:06:29;1.33;;;0.32;;
7801;SDS011;3945;48.952;9.506;2023-03-19T13:09:00;2.90;;;0.63;;
7801;SDS011;3945;48.952;9.506;2023-03-19T13:11:35;1.17;;;0.55;;
7801;SDS011;3945;48.952;9.506;2023-03-19T13:14:13;0.30;;;0.30;;
7801;SDS011;3945;48.952;9.506;2023-03-19T13:16:46;1.27;;;0.55;;
7801;SDS011;3945;48.952;9.506;2023-03-19T13:19:23;0.93;;;0.60;;
7801;SDS011;3945;48.952;9.506;2023-03-19T13:21:56;1.92;;;0.57;;
7801;SDS011;3945;48.952;9.506;2023-03-19T13:24:27;0.73;;;0.43;;
7801;SDS011;3945;48.952;9.506;2023-03-19T13:26:58;2.28;;;0.60;;
7801;SDS011;3945;48.952;9.506;2023-03-19T13:29:26;0.70;;;0.45;;
7801;SDS011;3945;48.952;9.506;2023-03-19T13:31:58;0.82;;;0.60;;
7801;SDS011;3945;48.952;9.506;2023-03-19T13:34:27;1.27;;;1.05;;
7801;SDS011;3945;48.952;9.506;2023-03-19T13:36:59;0.60;;;0.45;;
7801;SDS011;3945;48.952;9.506;2023-03-19T13:39:30;1.13;;;0.70;;
7801;SDS011;3945;48.952;9.506;2023-03-19T13:42:07;1.63;;;0.55;;
7801;SDS011;3945;48.952;9.506;2023-03-19T13:44:40;2.40;;;0.43;;
7801;SDS011;3945;48.952;9.506;2023-03-19T13:50:19;1.50;;;0.60;;
7801;SDS011;3945;48.952;9.506;2023-03-19T13:52:51;0.52;;;0.50;;
7801;SDS011;3945;48.952;9.506;2023-03-19T13:55:28;0.30;;;0.30;;
7801;SDS011;3945;48.952;9.506;2023-03-19T13:58:04;0.47;;;0.47;;
7801;SDS011;3945;48.952;9.506;2023-03-19T14:00:57;0.47;;;0.40;;
7801;SDS011;3945;48.952;9.506;2023-03-19T14:03:25;0.40;;;0.40;;
7801;SDS011;3945;48.952;9.506;2023-03-19T14:05:54;0.30;;;0.30;;
7801;SDS011;3945;48.952;9.506;2023-03-19T14:08:22;1.20;;;0.57;;
7801;SDS011;3945;48.952;9.506;2023-03-19T14:10:52;0.77;;;0.60;;
7801;SDS011;3945;48.952;9.506;2023-03-19T14:13:27;0.33;;;0.33;;
7801;SDS011;3945;48.952;9.506;2023-03-19T14:16:02;0.37;;;0.37;;
7801;SDS011;3945;48.952;9.506;2023-03-19T14:18:32;1.37;;;0.50;;
7801;SDS011;3945;48.952;9.506;2023-03-19T14:21:05;0.47;;;0.47;;
7801;SDS011;3945;48.952;9.506;2023-03-19T14:23:37;0.83;;;0.57;;
7801;SDS011;3945;48.952;9.506;2023-03-19T14:26:05;6.07;;;1.17;;
7801;SDS011;3945;48.952;9.506;2023-03-19T14:28:41;5.20;;;1.00;;
7801;SDS011;3945;48.952;9.506;2023-03-19T14:31:19;0.83;;;0.73;;
7801;SDS011;3945;48.952;9.506;2023-03-19T14:33:49;1.23;;;0.60;;
7801;SDS011;3945;48.952;9.506;2023-03-19T14:36:21;2.13;;;0.50;;
7801;SDS011;3945;48.952;9.506;2023-03-19T14:38:49;0.60;;;0.60;;
7801;SDS011;3945;48.952;9.506;2023-03-19T14:41:18;0.30;;;0.30;;
7801;SDS011;3945;48.952;9.506;2023-03-19T14:43:54;0.43;;;0.43;;
7801;SDS011;3945;48.952;9.506;2023-03-19T14:46:40;0.30;;;0.30;;
7801;SDS011;3945;48.952;9.506;2023-03-19T14:52:13;0.90;;;0.47;;
7801;SDS011;3945;48.952;9.506;2023-03-19T14:54:43;0.80;;;0.50;;
7801;SDS011;3945;48.952;9.506;2023-03-19T14:57:15;0.57;;;0.50;;
7801;SDS011;3945;48.952;9.506;2023-03-19T14:59:43;0.60;;;0.40;;
7801;SDS011;3945;48.952;9.506;2023-03-19T15:02:18;1.70;;;0.60;;
7801;SDS011;3945;48.952;9.506;2023-03-19T15:04:50;0.30;;;0.30;;
7801;SDS011;3945;48.952;9.506;2023-03-19T15:07:19;0.30;;;0.30;;
7801;SDS011;3945;48.952;9.506;2023-03-19T15:09:48;0.73;;;0.40;;
7801;SDS011;3945;48.952;9.506;2023-03-19T15:12:22;0.33;;;0.33;;
7801;SDS011;3945;48.952;9.506;2023-03-19T15:15:14;0.60;;;0.60;;
7801;SDS011;3945;48.952;9.506;2023-03-19T15:17:57;0.60;;;0.60;;
7801;SDS011;3945;48.952;9.506;2023-03-19T15:20:34;0.50;;;0.50;;
7801;SDS011;3945;48.952;9.506;2023-03-19T15:23:02;0.83;;;0.60;;
7801;SDS011;3945;48.952;9.506;2023-03-19T15:25:33;0.80;;;0.50;;
7801;SDS011;3945;48.952;9.506;2023-03-19T15:28:04;0.87;;;0.50;;
7801;SDS011;3945;48.952;9.506;2023-03-19T15:30:34;0.57;;;0.40;;
7801;SDS011;3945;48.952;9.506;2023-03-19T15:33:01;0.27;;;0.20;;
7801;SDS011;3945;48.952;9.506;2023-03-19T15:35:29;3.00;;;0.50;;
7801;SDS011;3945;48.952;9.506;2023-03-19T15:37:58;0.20;;;0.20;;
7801;SDS011;3945;48.952;9.506;2023-03-19T15:40:27;1.03;;;0.67;;
7801;SDS011;3945;48.952;9.506;2023-03-19T15:42:57;0.30;;;0.30;;
7801;SDS011;3945;48.952;9.506;2023-03-19T15:45:26;0.30;;;0.30;;
7801;SDS011;3945;48.952;9.506;2023-03-19T15:47:56;0.40;;;0.30;;